KCLS/CLS METAR and TAF weather

Enter ICAO airport designator
Station Type Date Time Source
KCLS METAR 2019/09/21 04:55 UTC NOAA

KCLS 210455Z AUTO 00000KT 10SM FEW017 FEW035 13/13 A3015 RMK AO2


Station Type Date Time Source
KCLS Decoded METAR 2019/09/21 04:55 UTC NOAA

Station name not available
Sep 21, 2019 - 12:55 AM EDT / 2019.09.21 0455 UTC
Wind: Calm:0
Visibility: 10 mile(s):0
Sky conditions: mostly clear
Temperature: 55 F (13 C)
Dew Point: 55 F (13 C)
Relative Humidity: 100%
Pressure (altimeter): 30.15 in. Hg (1020 hPa)
ob: KCLS 210455Z AUTO 00000KT 10SM FEW017 FEW035 13/13 A3015 RMK AO2
cycle: 5

Station Type Date Time Source
KCLS TAF UTC NOAA

Error!

Example: see airport list